createdAt,value
2022-09-04T00:02:27.593Z,68.90
2022-09-04T00:05:27.428Z,68.67
2022-09-04T00:08:17.466Z,67.47
2022-09-04T00:11:31.535Z,65.67
2022-09-04T00:14:18.390Z,66.27
2022-09-04T00:17:10.873Z,69.77
2022-09-04T00:19:59.426Z,65.13
2022-09-04T00:22:54.881Z,67.33
2022-09-04T00:25:37.781Z,66.20
2022-09-04T00:28:24.123Z,64.13
2022-09-04T00:31:09.225Z,63.97
2022-09-04T00:34:00.604Z,64.27
2022-09-04T00:36:32.500Z,63.47
2022-09-04T00:39:14.102Z,65.40
2022-09-04T00:41:57.861Z,64.37
2022-09-04T00:44:56.270Z,66.93
2022-09-04T00:47:55.912Z,66.13
2022-09-04T00:50:46.468Z,63.67
2022-09-04T00:53:42.708Z,66.87
2022-09-04T00:56:28.744Z,66.97
2022-09-04T00:59:23.045Z,66.77
2022-09-04T01:02:04.471Z,69.85
2022-09-04T01:04:45.908Z,62.63
2022-09-04T01:07:35.285Z,65.03
2022-09-04T01:10:19.561Z,64.20
2022-09-04T01:13:06.881Z,67.90
2022-09-04T01:15:46.038Z,63.77
2022-09-04T01:18:46.917Z,65.13
2022-09-04T01:21:43.429Z,66.87
2022-09-04T01:24:58.897Z,67.77
2022-09-04T01:27:45.986Z,62.28
2022-09-04T01:30:22.337Z,64.03
2022-09-04T01:33:31.539Z,65.73
2022-09-04T01:36:22.867Z,63.97
2022-09-04T01:38:58.546Z,65.57
2022-09-04T01:41:37.803Z,66.40
2022-09-04T01:44:11.720Z,63.73
2022-09-04T01:46:55.101Z,64.40
2022-09-04T01:49:53.958Z,66.63
2022-09-04T01:52:47.952Z,63.80
2022-09-04T01:55:44.894Z,66.97
2022-09-04T01:58:38.665Z,64.70
2022-09-04T02:01:29.460Z,66.13
2022-09-04T02:04:18.259Z,64.03
2022-09-04T02:07:10.854Z,65.23
2022-09-04T02:10:00.613Z,64.10
2022-09-04T02:12:50.987Z,68.13
2022-09-04T02:15:43.097Z,63.93
2022-09-04T02:18:24.577Z,65.33
2022-09-04T02:21:05.117Z,63.30
2022-09-04T02:23:44.335Z,66.00
2022-09-04T02:26:54.813Z,64.80
2022-09-04T02:29:40.296Z,65.23
2022-09-04T02:32:21.973Z,66.70
2022-09-04T02:35:34.220Z,64.50
2022-09-04T02:38:32.386Z,68.80
2022-09-04T02:41:28.217Z,74.23
2022-09-04T02:44:25.441Z,66.17
2022-09-04T02:47:05.334Z,65.83
2022-09-04T02:49:58.470Z,62.90
2022-09-04T02:52:59.683Z,67.83
2022-09-04T02:55:58.646Z,62.47
2022-09-04T02:58:30.181Z,64.63
2022-09-04T03:01:27.310Z,65.07
2022-09-04T03:04:19.138Z,66.13
2022-09-04T03:07:08.141Z,63.70
2022-09-04T03:09:51.781Z,63.07
2022-09-04T03:12:42.060Z,65.07
2022-09-04T03:15:27.420Z,62.70
2022-09-04T03:18:28.372Z,66.33
2022-09-04T03:21:03.466Z,67.97
2022-09-04T03:23:48.401Z,67.00
2022-09-04T03:26:34.786Z,64.43
2022-09-04T03:29:15.667Z,68.60
2022-09-04T03:32:16.495Z,62.60
2022-09-04T03:34:57.408Z,65.77
2022-09-04T03:37:38.193Z,69.87
2022-09-04T03:40:43.385Z,65.50
2022-09-04T03:43:22.148Z,70.32
2022-09-04T03:46:11.994Z,69.33
2022-09-04T03:49:07.403Z,72.57
2022-09-04T03:51:51.150Z,69.17
2022-09-04T03:54:32.364Z,74.97
2022-09-04T03:57:35.487Z,71.50
2022-09-04T04:00:10.880Z,67.03
2022-09-04T04:03:21.976Z,72.10
2022-09-04T04:06:15.046Z,74.10
2022-09-04T04:08:56.624Z,69.90
2022-09-04T04:12:04.396Z,74.80
2022-09-04T04:14:42.343Z,76.43
2022-09-04T04:17:51.813Z,76.23
2022-09-04T04:20:41.252Z,74.90
2022-09-04T04:23:37.721Z,76.83
2022-09-04T04:26:24.513Z,72.37
2022-09-04T04:29:08.626Z,75.87
2022-09-04T04:32:10.693Z,74.95
2022-09-04T04:35:04.950Z,75.00
2022-09-04T04:38:00.546Z,76.63
2022-09-04T04:41:03.136Z,79.27
2022-09-04T04:43:55.848Z,72.70
2022-09-04T04:46:46.154Z,76.80
2022-09-04T04:49:20.669Z,77.20
2022-09-04T04:54:41.439Z,80.27
2022-09-04T04:57:27.373Z,74.47
2022-09-04T05:00:32.159Z,74.13
2022-09-04T05:03:15.477Z,76.18
2022-09-04T05:06:16.385Z,75.70
2022-09-04T05:09:03.229Z,77.00
2022-09-04T05:12:03.170Z,82.00
2022-09-04T05:14:47.562Z,80.13
2022-09-04T05:17:40.670Z,77.35
2022-09-04T05:20:28.832Z,74.97
2022-09-04T05:23:17.169Z,75.33
2022-09-04T05:26:12.173Z,81.80
2022-09-04T05:28:59.509Z,80.45
2022-09-04T05:31:38.262Z,82.00
2022-09-04T05:34:36.005Z,77.83
2022-09-04T05:37:17.062Z,80.27
2022-09-04T05:40:07.050Z,80.30
2022-09-04T05:42:50.776Z,80.43
2022-09-04T05:45:49.270Z,83.70
2022-09-04T05:48:34.623Z,88.83
2022-09-04T05:51:18.546Z,86.73
2022-09-04T05:54:08.321Z,92.28
2022-09-04T05:56:50.120Z,85.27
2022-09-04T05:59:44.102Z,88.73
2022-09-04T06:02:49.959Z,93.40
2022-09-04T06:05:44.348Z,92.53
2022-09-04T06:08:29.004Z,95.70
2022-09-04T06:13:46.705Z,95.33
2022-09-04T06:16:27.468Z,102.43
2022-09-04T06:19:27.743Z,102.07
2022-09-04T06:22:05.313Z,100.43
2022-09-04T06:25:05.253Z,99.50
2022-09-04T06:28:20.047Z,103.40
2022-09-04T06:31:19.893Z,103.50
2022-09-04T06:34:06.862Z,105.97
2022-09-04T06:36:47.478Z,105.67
2022-09-04T06:39:42.468Z,102.80
2022-09-04T06:42:54.219Z,108.73
2022-09-04T06:45:42.655Z,110.13
2022-09-04T06:48:32.595Z,108.57
2022-09-04T06:51:08.132Z,106.67
2022-09-04T06:53:48.054Z,108.30
2022-09-04T06:56:22.435Z,112.93
2022-09-04T06:59:21.561Z,112.80
2022-09-04T07:02:04.093Z,113.70
2022-09-04T07:04:54.677Z,112.77
2022-09-04T07:07:58.436Z,114.97
2022-09-04T07:10:49.302Z,117.30
2022-09-04T07:13:44.189Z,114.30
2022-09-04T07:16:40.503Z,123.53
2022-09-04T07:19:56.337Z,123.93
2022-09-04T07:22:37.051Z,128.37
2022-09-04T07:25:29.841Z,124.33
2022-09-04T07:28:23.767Z,126.10
2022-09-04T07:31:08.218Z,121.55
2022-09-04T07:33:56.727Z,126.35
2022-09-04T07:36:40.085Z,127.20
2022-09-04T07:39:37.585Z,131.70
2022-09-04T07:42:32.726Z,126.63
2022-09-04T07:45:14.474Z,125.63
2022-09-04T07:47:57.334Z,126.03
2022-09-04T07:50:35.671Z,127.10
2022-09-04T07:53:25.505Z,123.60
2022-09-04T07:56:07.692Z,129.57
2022-09-04T07:58:56.731Z,124.97
2022-09-04T08:01:40.230Z,131.17
2022-09-04T08:04:15.129Z,127.65
2022-09-04T08:06:53.429Z,128.07
2022-09-04T08:10:06.621Z,133.70
2022-09-04T08:13:02.452Z,136.07
2022-09-04T08:15:49.912Z,127.18
2022-09-04T08:19:01.532Z,130.38
2022-09-04T08:21:40.131Z,132.35
2022-09-04T08:24:50.223Z,131.35
2022-09-04T08:27:49.942Z,138.18
2022-09-04T08:30:22.104Z,127.45
2022-09-04T08:33:20.609Z,133.15
2022-09-04T08:36:02.133Z,138.95
2022-09-04T08:38:36.719Z,133.50
2022-09-04T08:41:36.112Z,133.13
2022-09-04T08:44:32.605Z,134.00
2022-09-04T08:47:36.533Z,139.65
2022-09-04T08:50:38.468Z,134.57
2022-09-04T08:53:20.368Z,135.85
2022-09-04T08:56:11.125Z,137.77
2022-09-04T08:59:26.475Z,138.10
2022-09-04T09:02:06.975Z,136.05
2022-09-04T09:05:10.176Z,139.85
2022-09-04T09:07:52.178Z,140.50
2022-09-04T09:10:38.672Z,142.05
2022-09-04T09:13:16.194Z,141.07
2022-09-04T09:16:12.489Z,135.82
2022-09-04T09:19:10.145Z,139.60
2022-09-04T09:22:12.485Z,132.73
2022-09-04T09:25:22.850Z,138.45
2022-09-04T09:28:29.228Z,134.10
2022-09-04T09:31:16.879Z,137.23
2022-09-04T09:34:33.811Z,134.73
2022-09-04T09:37:28.519Z,131.50
2022-09-04T09:40:32.461Z,130.60
2022-09-04T09:43:17.634Z,134.98
2022-09-04T09:46:24.760Z,137.93
2022-09-04T09:49:05.389Z,138.93
2022-09-04T09:52:07.005Z,138.98
2022-09-04T09:55:09.534Z,138.18
2022-09-04T09:58:02.076Z,136.02
2022-09-04T10:01:00.157Z,140.30
2022-09-04T10:04:13.008Z,139.13
2022-09-04T10:07:20.024Z,139.80
2022-09-04T10:10:24.859Z,136.40
2022-09-04T10:13:14.921Z,139.80
2022-09-04T10:16:13.774Z,136.55
2022-09-04T10:19:18.281Z,139.25
2022-09-04T10:22:24.382Z,136.77
2022-09-04T10:25:09.678Z,132.23
2022-09-04T10:27:53.246Z,131.88
2022-09-04T10:30:37.386Z,134.25
2022-09-04T10:36:59.502Z,133.52
2022-09-04T10:40:25.030Z,130.40
2022-09-04T10:43:26.809Z,134.43
2022-09-04T10:46:13.748Z,136.00
2022-09-04T10:49:31.713Z,132.13
2022-09-04T10:52:30.293Z,131.50
2022-09-04T10:55:20.249Z,130.77
2022-09-04T10:58:08.758Z,124.25
2022-09-04T11:01:05.425Z,134.05
2022-09-04T11:03:44.316Z,133.27
2022-09-04T11:06:18.806Z,131.77
2022-09-04T11:08:53.160Z,131.43
2022-09-04T11:11:43.528Z,132.68
2022-09-04T11:14:43.342Z,130.32
2022-09-04T11:17:20.623Z,130.32
2022-09-04T11:20:27.382Z,130.70
2022-09-04T11:23:32.765Z,126.30
2022-09-04T11:26:29.937Z,130.05
2022-09-04T11:29:12.783Z,127.38
2022-09-04T11:32:12.895Z,124.85
2022-09-04T11:35:22.235Z,129.10
2022-09-04T11:38:25.233Z,127.72
2022-09-04T11:41:31.348Z,130.13
2022-09-04T11:44:02.878Z,131.27
2022-09-04T11:46:37.161Z,123.57
2022-09-04T11:49:16.332Z,127.90
2022-09-04T11:52:14.820Z,125.38
2022-09-04T11:55:07.495Z,124.40
2022-09-04T11:58:03.773Z,122.88
2022-09-04T12:01:16.300Z,124.45
2022-09-04T12:03:49.532Z,120.75
2022-09-04T12:06:39.618Z,117.68
2022-09-04T12:09:36.079Z,113.10
2022-09-04T12:12:58.224Z,109.72
2022-09-04T12:15:35.751Z,112.33
2022-09-04T12:18:33.510Z,111.50
2022-09-04T12:21:08.932Z,108.40
2022-09-04T12:24:07.477Z,108.00
2022-09-04T12:27:03.611Z,109.75
2022-09-04T12:30:03.867Z,106.73
2022-09-04T12:32:38.223Z,105.72
2022-09-04T12:35:32.075Z,108.83
2022-09-04T12:38:09.913Z,107.70
2022-09-04T12:41:13.501Z,108.47
2022-09-04T12:43:52.752Z,103.00
2022-09-04T12:47:00.563Z,108.30
2022-09-04T12:49:49.028Z,105.23
2022-09-04T12:52:42.174Z,104.63
2022-09-04T12:55:23.179Z,107.53
2022-09-04T12:58:33.870Z,109.13
2022-09-04T13:01:19.215Z,104.90
2022-09-04T13:04:01.191Z,109.20
2022-09-04T13:06:55.686Z,105.40
2022-09-04T13:12:56.107Z,106.37
2022-09-04T13:15:28.636Z,107.83
2022-09-04T13:18:22.264Z,106.17
2022-09-04T13:20:58.711Z,107.65
2022-09-04T13:24:10.918Z,108.87
2022-09-04T13:27:00.615Z,107.03
2022-09-04T13:30:05.642Z,107.07
2022-09-04T13:32:55.191Z,104.40
2022-09-04T13:35:42.940Z,105.70
2022-09-04T13:38:43.221Z,107.63
2022-09-04T13:41:38.839Z,103.63
2022-09-04T13:44:28.404Z,108.63
2022-09-04T13:47:06.583Z,103.53
2022-09-04T13:49:51.284Z,105.47
2022-09-04T13:52:34.131Z,101.77
2022-09-04T13:55:26.387Z,108.43
2022-09-04T13:58:10.976Z,101.03
2022-09-04T14:00:49.296Z,104.10
2022-09-04T14:03:36.492Z,105.00
2022-09-04T14:06:11.662Z,103.50
2022-09-04T14:08:46.311Z,110.73
2022-09-04T14:12:04.098Z,105.67
2022-09-04T14:14:51.396Z,102.03
2022-09-04T14:17:31.033Z,108.50
2022-09-04T14:20:24.900Z,105.17
2022-09-04T14:23:35.327Z,100.63
2022-09-04T14:26:12.980Z,106.00
2022-09-04T14:29:04.144Z,106.00
2022-09-04T14:31:52.364Z,99.80
2022-09-04T14:35:10.366Z,107.53
2022-09-04T14:38:05.465Z,107.37
2022-09-04T14:40:42.341Z,101.00
2022-09-04T14:43:28.495Z,105.13
2022-09-04T14:46:38.957Z,101.27
2022-09-04T14:49:17.171Z,102.93
2022-09-04T14:51:56.649Z,102.70
2022-09-04T14:54:53.045Z,108.00
2022-09-04T14:57:39.450Z,106.83
2022-09-04T15:00:20.835Z,109.80
2022-09-04T15:03:12.111Z,105.73
2022-09-04T15:05:56.776Z,105.07
2022-09-04T15:08:40.583Z,104.00
2022-09-04T15:11:31.657Z,101.78
2022-09-04T15:14:09.318Z,103.03
2022-09-04T15:16:49.696Z,99.37
2022-09-04T15:19:52.656Z,104.80
2022-09-04T15:22:57.600Z,108.00
2022-09-04T15:26:02.075Z,96.65
2022-09-04T15:28:39.799Z,106.93
2022-09-04T15:31:17.067Z,98.77
2022-09-04T15:33:49.155Z,101.77
2022-09-04T15:36:24.581Z,101.97
2022-09-04T15:38:59.098Z,100.40
2022-09-04T15:41:44.804Z,96.13
2022-09-04T15:44:33.115Z,99.80
2022-09-04T15:47:04.658Z,98.30
2022-09-04T15:49:41.942Z,101.13
2022-09-04T15:52:28.736Z,99.37
2022-09-04T15:55:28.365Z,99.67
2022-09-04T15:58:30.177Z,98.10
2022-09-04T16:01:12.088Z,97.43
2022-09-04T16:04:15.570Z,97.40
2022-09-04T16:06:57.759Z,98.87
2022-09-04T16:09:50.123Z,100.50
2022-09-04T16:12:30.800Z,101.57
2022-09-04T16:15:10.834Z,99.73
2022-09-04T16:17:47.105Z,104.23
2022-09-04T16:20:25.638Z,102.87
2022-09-04T16:23:07.546Z,100.00
2022-09-04T16:25:43.096Z,103.03
2022-09-04T16:28:25.552Z,106.40
2022-09-04T16:31:01.938Z,102.03
2022-09-04T16:33:40.753Z,104.30
2022-09-04T16:36:25.093Z,115.93
2022-09-04T16:39:13.393Z,96.97
2022-09-04T16:41:54.653Z,96.40
2022-09-04T16:44:38.549Z,100.37
2022-09-04T16:47:48.921Z,96.27
2022-09-04T16:50:23.561Z,98.60
2022-09-04T16:53:13.361Z,96.00
2022-09-04T16:56:00.882Z,92.23
2022-09-04T16:58:50.098Z,91.57
2022-09-04T17:01:57.237Z,98.37
2022-09-04T17:04:44.215Z,97.67
2022-09-04T17:07:23.304Z,95.87
2022-09-04T17:09:58.706Z,89.93
2022-09-04T17:13:01.333Z,92.20
2022-09-04T17:15:58.818Z,96.00
2022-09-04T17:18:31.729Z,97.13
2022-09-04T17:26:29.855Z,98.90
2022-09-04T17:29:01.072Z,99.73
2022-09-04T17:29:14.171Z,91.60
2022-09-04T17:31:15.615Z,96.43
2022-09-04T17:38:49.250Z,91.67
2022-09-04T17:40:40.195Z,93.27
2022-09-04T17:41:40.707Z,89.87
2022-09-04T17:44:03.332Z,91.23
2022-09-04T17:46:59.427Z,93.23
2022-09-04T17:49:34.723Z,88.00
2022-09-04T17:52:11.051Z,94.40
2022-09-04T17:54:48.849Z,88.90
2022-09-04T17:57:26.077Z,90.37
2022-09-04T18:00:06.884Z,87.97
2022-09-04T18:02:49.768Z,85.60
2022-09-04T18:05:33.647Z,88.70
2022-09-04T18:08:20.311Z,91.07
2022-09-04T18:11:01.073Z,87.70
2022-09-04T18:14:02.162Z,83.27
2022-09-04T18:16:38.483Z,89.80
2022-09-04T18:19:25.497Z,88.30
2022-09-04T18:22:31.956Z,86.50
2022-09-04T18:25:16.318Z,88.53
2022-09-04T18:28:22.091Z,87.40
2022-09-04T18:37:06.060Z,85.30
2022-09-04T18:37:19.638Z,88.20
2022-09-04T18:37:44.301Z,87.70
2022-09-04T18:40:39.187Z,88.07
2022-09-04T18:50:29.023Z,83.23
2022-09-04T18:50:34.959Z,85.33
2022-09-04T18:50:40.369Z,82.57
2022-09-04T18:56:20.443Z,83.63
2022-09-04T18:58:57.922Z,79.80
2022-09-04T19:01:38.438Z,82.67
2022-09-04T19:04:19.312Z,82.00
2022-09-04T19:07:07.150Z,81.27
2022-09-04T19:09:55.795Z,83.67
2022-09-04T19:12:52.185Z,82.87
2022-09-04T19:15:36.902Z,81.70
2022-09-04T19:18:45.998Z,82.23
2022-09-04T19:21:20.952Z,83.90
2022-09-04T19:24:22.538Z,81.77
2022-09-04T19:26:54.341Z,83.80
2022-09-04T19:29:31.792Z,80.13
2022-09-04T19:32:14.483Z,80.73
2022-09-04T19:34:55.182Z,79.67
2022-09-04T19:39:41.419Z,79.27
2022-09-04T19:46:05.197Z,79.00
2022-09-04T19:46:15.954Z,82.47
2022-09-04T19:47:28.911Z,79.53
2022-09-04T19:53:17.966Z,79.90
2022-09-04T19:53:42.158Z,82.20
2022-09-04T19:57:32.337Z,85.38
2022-09-04T19:59:44.908Z,79.20
2022-09-04T20:02:21.028Z,82.87
2022-09-04T20:04:58.969Z,82.40
2022-09-04T20:07:48.638Z,77.43
2022-09-04T20:10:32.080Z,79.87
2022-09-04T20:13:28.706Z,83.27
2022-09-04T20:16:25.184Z,80.90
2022-09-04T20:19:16.844Z,78.97
2022-09-04T20:22:25.753Z,78.57
2022-09-04T20:25:06.685Z,80.70
2022-09-04T20:27:46.071Z,84.13
2022-09-04T20:30:21.256Z,77.90
2022-09-04T20:33:12.025Z,78.13
2022-09-04T20:36:09.348Z,80.60
2022-09-04T20:39:05.740Z,75.97
2022-09-04T20:41:43.583Z,77.33
2022-09-04T20:44:45.862Z,78.30
2022-09-04T20:52:44.830Z,79.75
2022-09-04T20:52:54.193Z,77.93
2022-09-04T20:53:42.757Z,77.13
2022-09-04T20:58:35.038Z,80.23
2022-09-04T21:03:13.781Z,77.57
2022-09-04T21:03:15.216Z,75.93
2022-09-04T21:06:07.296Z,81.50
2022-09-04T21:08:52.193Z,77.63
2022-09-04T21:14:39.789Z,78.20
2022-09-04T21:17:33.799Z,77.10
2022-09-04T21:20:06.821Z,76.00
2022-09-04T21:22:59.598Z,75.57
2022-09-04T21:25:44.354Z,70.97
2022-09-04T21:28:26.003Z,73.30
2022-09-04T21:31:44.134Z,72.10
2022-09-04T21:34:31.174Z,76.10
2022-09-04T21:37:11.684Z,73.63
2022-09-04T21:40:49.652Z,76.03
2022-09-04T21:43:50.086Z,74.73
2022-09-04T21:46:57.779Z,72.67
2022-09-04T21:49:47.974Z,71.87
2022-09-04T21:52:53.440Z,70.63
2022-09-04T21:58:26.445Z,68.40
2022-09-04T22:02:39.898Z,69.97
2022-09-04T22:02:40.984Z,73.73
2022-09-04T22:05:18.429Z,70.40
2022-09-04T22:13:26.608Z,68.83
2022-09-04T22:13:30.995Z,70.43
2022-09-04T22:14:50.000Z,69.67
2022-09-04T22:17:22.456Z,74.03
2022-09-04T22:20:19.568Z,70.67
2022-09-04T22:23:20.214Z,73.17
2022-09-04T22:26:23.550Z,74.27
2022-09-04T22:29:26.606Z,68.80
2022-09-04T22:35:27.795Z,66.97
2022-09-04T22:38:28.685Z,71.60
2022-09-04T22:41:37.977Z,67.00
2022-09-04T22:44:36.752Z,74.67
2022-09-04T22:47:29.949Z,70.83
2022-09-04T22:50:37.347Z,66.15
2022-09-04T22:53:48.938Z,70.87
2022-09-04T22:56:34.322Z,67.63
2022-09-04T22:59:27.782Z,70.70
2022-09-04T23:02:13.611Z,67.93
2022-09-04T23:05:00.837Z,67.77
2022-09-04T23:13:44.859Z,70.87
2022-09-04T23:13:50.737Z,70.93
2022-09-04T23:14:53.888Z,67.80
2022-09-04T23:19:43.943Z,67.00
2022-09-04T23:26:32.532Z,68.43
2022-09-04T23:26:42.064Z,66.10
2022-09-04T23:27:46.250Z,67.57
2022-09-04T23:30:25.228Z,65.53
2022-09-04T23:33:27.678Z,67.43
2022-09-04T23:36:33.834Z,69.03
2022-09-04T23:39:27.797Z,64.30
2022-09-04T23:42:39.717Z,64.47
2022-09-04T23:45:48.795Z,65.63
2022-09-04T23:48:58.096Z,64.40
2022-09-04T23:52:04.922Z,64.40
2022-09-04T23:55:05.556Z,67.90
2022-09-04T23:58:34.067Z,62.00
